sensor_id;sensor_type;location;lat;lon;timestamp;pressure;altitude;pressure_sealevel;temperature;humidity
32251;BME280;41295;48.518;9.206;2022-09-09T00:00:01;96889.72;;;17.96;58.33
32251;BME280;41295;48.518;9.206;2022-09-09T00:02:10;96887.19;;;17.94;58.52
32251;BME280;41295;48.518;9.206;2022-09-09T00:04:25;96885.78;;;17.90;58.70
32251;BME280;41295;48.518;9.206;2022-09-09T00:06:31;96882.41;;;17.88;59.46
32251;BME280;41295;48.518;9.206;2022-09-09T00:08:49;96877.56;;;17.82;59.20
32251;BME280;41295;48.518;9.206;2022-09-09T00:11:01;96871.97;;;17.86;59.15
32251;BME280;41295;48.518;9.206;2022-09-09T00:13:18;96874.31;;;17.78;59.67
32251;BME280;41295;48.518;9.206;2022-09-09T00:15:25;96867.59;;;17.74;59.85
32251;BME280;41295;48.518;9.206;2022-09-09T00:17:35;96863.63;;;17.68;59.74
32251;BME280;41295;48.518;9.206;2022-09-09T00:19:41;96857.34;;;17.58;59.70
32251;BME280;41295;48.518;9.206;2022-09-09T00:21:56;96860.22;;;17.54;59.91
32251;BME280;41295;48.518;9.206;2022-09-09T00:24:14;96855.75;;;17.55;60.35
32251;BME280;41295;48.518;9.206;2022-09-09T00:26:30;96857.34;;;17.58;60.07
32251;BME280;41295;48.518;9.206;2022-09-09T00:28:39;96862.94;;;17.53;60.07
32251;BME280;41295;48.518;9.206;2022-09-09T00:30:44;96857.16;;;17.48;60.85
32251;BME280;41295;48.518;9.206;2022-09-09T00:32:53;96859.47;;;17.52;60.24
32251;BME280;41295;48.518;9.206;2022-09-09T00:35:03;96869.03;;;17.53;59.71
32251;BME280;41295;48.518;9.206;2022-09-09T00:37:08;96865.19;;;17.46;59.79
32251;BME280;41295;48.518;9.206;2022-09-09T00:39:20;96869.31;;;17.37;60.32
32251;BME280;41295;48.518;9.206;2022-09-09T00:41:38;96864.66;;;17.41;60.24
32251;BME280;41295;48.518;9.206;2022-09-09T00:43:49;96868.47;;;17.37;60.36
32251;BME280;41295;48.518;9.206;2022-09-09T00:48:31;96872.06;;;17.36;60.77
32251;BME280;41295;48.518;9.206;2022-09-09T00:50:45;96862.91;;;17.28;61.01
32251;BME280;41295;48.518;9.206;2022-09-09T00:52:56;96868.31;;;17.27;61.28
32251;BME280;41295;48.518;9.206;2022-09-09T00:55:07;96865.00;;;17.61;62.48
32251;BME280;41295;48.518;9.206;2022-09-09T00:57:18;96869.44;;;17.85;61.55
32251;BME280;41295;48.518;9.206;2022-09-09T00:59:28;96865.59;;;17.89;60.10
32251;BME280;41295;48.518;9.206;2022-09-09T01:01:37;96862.84;;;17.90;59.70
32251;BME280;41295;48.518;9.206;2022-09-09T01:03:45;96863.44;;;17.83;59.34
32251;BME280;41295;48.518;9.206;2022-09-09T01:05:55;96871.28;;;17.71;60.13
32251;BME280;41295;48.518;9.206;2022-09-09T01:08:02;96867.53;;;17.62;59.52
32251;BME280;41295;48.518;9.206;2022-09-09T01:10:15;96869.03;;;17.53;59.25
32251;BME280;41295;48.518;9.206;2022-09-09T01:12:32;96861.09;;;17.42;59.78
32251;BME280;41295;48.518;9.206;2022-09-09T01:14:42;96864.91;;;17.38;60.29
32251;BME280;41295;48.518;9.206;2022-09-09T01:16:48;96862.25;;;17.38;60.39
32251;BME280;41295;48.518;9.206;2022-09-09T01:18:53;96864.91;;;17.38;60.46
32251;BME280;41295;48.518;9.206;2022-09-09T01:21:04;96859.00;;;17.34;60.59
32251;BME280;41295;48.518;9.206;2022-09-09T01:23:22;96864.69;;;17.28;60.69
32251;BME280;41295;48.518;9.206;2022-09-09T01:27:57;96867.78;;;17.22;61.69
32251;BME280;41295;48.518;9.206;2022-09-09T01:30:02;96864.75;;;17.15;61.45
32251;BME280;41295;48.518;9.206;2022-09-09T01:32:39;96867.69;;;17.10;61.46
32251;BME280;41295;48.518;9.206;2022-09-09T01:34:42;96868.63;;;17.09;61.67
32251;BME280;41295;48.518;9.206;2022-09-09T01:36:49;96864.75;;;17.02;61.72
32251;BME280;41295;48.518;9.206;2022-09-09T01:38:54;96866.63;;;17.00;62.08
32251;BME280;41295;48.518;9.206;2022-09-09T01:40:57;96863.38;;;16.96;62.71
32251;BME280;41295;48.518;9.206;2022-09-09T01:43:02;96857.28;;;16.95;62.31
32251;BME280;41295;48.518;9.206;2022-09-09T01:45:06;96861.19;;;16.90;62.30
32251;BME280;41295;48.518;9.206;2022-09-09T01:47:09;96858.88;;;16.85;62.47
32251;BME280;41295;48.518;9.206;2022-09-09T01:49:12;96867.72;;;16.84;62.63
32251;BME280;41295;48.518;9.206;2022-09-09T01:51:14;96875.00;;;16.80;62.21
32251;BME280;41295;48.518;9.206;2022-09-09T01:53:18;96876.16;;;16.76;62.54
32251;BME280;41295;48.518;9.206;2022-09-09T01:55:28;96885.22;;;16.72;62.75
32251;BME280;41295;48.518;9.206;2022-09-09T01:57:37;96891.63;;;16.68;62.94
32251;BME280;41295;48.518;9.206;2022-09-09T01:59:50;96887.13;;;16.70;62.43
32251;BME280;41295;48.518;9.206;2022-09-09T02:02:07;96894.50;;;16.65;62.91
32251;BME280;41295;48.518;9.206;2022-09-09T02:04:21;96892.91;;;16.62;62.76
32251;BME280;41295;48.518;9.206;2022-09-09T02:06:30;96884.91;;;16.64;62.91
32251;BME280;41295;48.518;9.206;2022-09-09T02:08:40;96884.47;;;16.70;62.21
32251;BME280;41295;48.518;9.206;2022-09-09T02:10:47;96889.22;;;16.65;62.39
32251;BME280;41295;48.518;9.206;2022-09-09T02:12:55;96891.84;;;16.65;62.48
32251;BME280;41295;48.518;9.206;2022-09-09T02:15:07;96878.06;;;16.61;62.44
32251;BME280;41295;48.518;9.206;2022-09-09T02:17:11;96882.38;;;16.49;62.76
32251;BME280;41295;48.518;9.206;2022-09-09T02:19:19;96882.59;;;16.59;61.93
32251;BME280;41295;48.518;9.206;2022-09-09T02:21:29;96882.47;;;16.61;62.33
32251;BME280;41295;48.518;9.206;2022-09-09T02:23:33;96888.47;;;16.63;62.20
32251;BME280;41295;48.518;9.206;2022-09-09T02:25:39;96889.22;;;16.65;62.28
32251;BME280;41295;48.518;9.206;2022-09-09T02:27:45;96886.25;;;16.56;62.54
32251;BME280;41295;48.518;9.206;2022-09-09T02:29:51;96881.53;;;16.49;63.02
32251;BME280;41295;48.518;9.206;2022-09-09T02:31:59;96882.56;;;16.46;63.02
32251;BME280;41295;48.518;9.206;2022-09-09T02:34:05;96884.78;;;16.39;63.12
32251;BME280;41295;48.518;9.206;2022-09-09T02:36:13;96885.41;;;16.69;61.82
32251;BME280;41295;48.518;9.206;2022-09-09T02:38:18;96893.00;;;16.61;62.55
32251;BME280;41295;48.518;9.206;2022-09-09T02:40:23;96898.19;;;16.49;63.08
32251;BME280;41295;48.518;9.206;2022-09-09T02:42:26;96894.69;;;16.49;63.55
32251;BME280;41295;48.518;9.206;2022-09-09T02:44:29;96904.25;;;16.50;63.72
32251;BME280;41295;48.518;9.206;2022-09-09T02:46:41;96906.25;;;16.46;63.94
32251;BME280;41295;48.518;9.206;2022-09-09T02:48:52;96908.38;;;16.54;64.09
32251;BME280;41295;48.518;9.206;2022-09-09T02:51:00;96908.50;;;16.52;64.43
32251;BME280;41295;48.518;9.206;2022-09-09T02:53:09;96900.38;;;16.55;64.33
32251;BME280;41295;48.518;9.206;2022-09-09T02:55:19;96894.16;;;16.56;64.61
32251;BME280;41295;48.518;9.206;2022-09-09T02:57:27;96874.47;;;16.62;64.42
32251;BME280;41295;48.518;9.206;2022-09-09T02:59:31;96885.09;;;16.61;64.64
32251;BME280;41295;48.518;9.206;2022-09-09T03:01:34;96893.84;;;16.61;64.62
32251;BME280;41295;48.518;9.206;2022-09-09T03:03:37;96896.91;;;16.55;64.34
32251;BME280;41295;48.518;9.206;2022-09-09T03:05:42;96891.00;;;16.51;64.31
32251;BME280;41295;48.518;9.206;2022-09-09T03:07:45;96892.91;;;16.49;64.63
32251;BME280;41295;48.518;9.206;2022-09-09T03:09:48;96895.53;;;16.49;64.89
32251;BME280;41295;48.518;9.206;2022-09-09T03:11:51;96897.22;;;16.50;65.16
32251;BME280;41295;48.518;9.206;2022-09-09T03:13:54;96883.94;;;16.52;65.11
32251;BME280;41295;48.518;9.206;2022-09-09T03:15:58;96885.53;;;16.54;64.68
32251;BME280;41295;48.518;9.206;2022-09-09T03:18:01;96890.81;;;16.54;64.94
32251;BME280;41295;48.518;9.206;2022-09-09T03:20:04;96904.69;;;16.56;65.47
32251;BME280;41295;48.518;9.206;2022-09-09T03:22:09;96911.66;;;16.70;65.18
32251;BME280;41295;48.518;9.206;2022-09-09T03:24:12;96898.81;;;16.79;64.22
32251;BME280;41295;48.518;9.206;2022-09-09T03:26:15;96900.38;;;16.81;63.57
32251;BME280;41295;48.518;9.206;2022-09-09T03:28:18;96906.47;;;16.82;63.70
32251;BME280;41295;48.518;9.206;2022-09-09T03:30:22;96909.00;;;16.83;64.01
32251;BME280;41295;48.518;9.206;2022-09-09T03:32:24;96908.88;;;16.85;64.08
32251;BME280;41295;48.518;9.206;2022-09-09T03:34:28;96907.31;;;16.82;64.51
32251;BME280;41295;48.518;9.206;2022-09-09T03:36:31;96909.75;;;16.86;63.69
32251;BME280;41295;48.518;9.206;2022-09-09T03:38:35;96914.72;;;16.77;64.36
32251;BME280;41295;48.518;9.206;2022-09-09T03:40:37;96916.78;;;16.85;63.89
32251;BME280;41295;48.518;9.206;2022-09-09T03:42:40;96913.84;;;16.77;63.58
32251;BME280;41295;48.518;9.206;2022-09-09T03:44:43;96907.97;;;16.73;64.04
32251;BME280;41295;48.518;9.206;2022-09-09T03:46:51;96897.66;;;16.70;64.49
32251;BME280;41295;48.518;9.206;2022-09-09T03:48:53;96908.19;;;16.70;64.80
32251;BME280;41295;48.518;9.206;2022-09-09T03:50:56;96901.03;;;16.72;64.71
32251;BME280;41295;48.518;9.206;2022-09-09T03:53:02;96892.91;;;16.75;64.68
32251;BME280;41295;48.518;9.206;2022-09-09T03:55:07;96890.38;;;16.74;64.91
32251;BME280;41295;48.518;9.206;2022-09-09T03:57:10;96885.00;;;16.75;64.89
32251;BME280;41295;48.518;9.206;2022-09-09T03:59:13;96882.03;;;16.80;64.88
32251;BME280;41295;48.518;9.206;2022-09-09T04:01:15;96886.69;;;16.76;64.85
32251;BME280;41295;48.518;9.206;2022-09-09T04:03:19;96887.41;;;16.78;64.94
32251;BME280;41295;48.518;9.206;2022-09-09T04:05:28;96894.16;;;16.82;64.78
32251;BME280;41295;48.518;9.206;2022-09-09T04:07:30;96890.50;;;16.72;64.40
32251;BME280;41295;48.518;9.206;2022-09-09T04:09:33;96897.66;;;16.70;65.09
32251;BME280;41295;48.518;9.206;2022-09-09T04:11:38;96883.41;;;16.73;65.11
32251;BME280;41295;48.518;9.206;2022-09-09T04:13:41;96884.47;;;16.70;65.48
32251;BME280;41295;48.518;9.206;2022-09-09T04:15:43;96889.53;;;16.73;65.36
32251;BME280;41295;48.518;9.206;2022-09-09T04:17:46;96885.75;;;16.77;64.99
32251;BME280;41295;48.518;9.206;2022-09-09T04:19:49;96884.78;;;16.78;65.21
32251;BME280;41295;48.518;9.206;2022-09-09T04:21:51;96882.16;;;16.78;65.47
32251;BME280;41295;48.518;9.206;2022-09-09T04:23:54;96884.56;;;16.81;65.55
32251;BME280;41295;48.518;9.206;2022-09-09T04:25:58;96881.00;;;16.82;65.31
32251;BME280;41295;48.518;9.206;2022-09-09T04:28:02;96876.47;;;16.85;65.33
32251;BME280;41295;48.518;9.206;2022-09-09T04:30:05;96880.88;;;16.84;66.20
32251;BME280;41295;48.518;9.206;2022-09-09T04:32:08;96881.53;;;16.88;66.26
32251;BME280;41295;48.518;9.206;2022-09-09T04:34:11;96883.41;;;16.86;66.25
32251;BME280;41295;48.518;9.206;2022-09-09T04:36:13;96886.16;;;16.84;66.45
32251;BME280;41295;48.518;9.206;2022-09-09T04:38:17;96887.41;;;16.91;66.34
32251;BME280;41295;48.518;9.206;2022-09-09T04:40:19;96880.66;;;16.87;66.89
32251;BME280;41295;48.518;9.206;2022-09-09T04:42:23;96882.25;;;16.90;66.72
32251;BME280;41295;48.518;9.206;2022-09-09T04:44:28;96886.69;;;16.89;66.87
32251;BME280;41295;48.518;9.206;2022-09-09T04:46:31;96880.03;;;16.97;66.87
32251;BME280;41295;48.518;9.206;2022-09-09T04:48:35;96889.63;;;17.11;65.28
32251;BME280;41295;48.518;9.206;2022-09-09T04:50:38;96879.81;;;17.00;66.09
32251;BME280;41295;48.518;9.206;2022-09-09T04:52:41;96887.09;;;16.96;66.25
32251;BME280;41295;48.518;9.206;2022-09-09T04:54:44;96883.00;;;16.92;67.04
32251;BME280;41295;48.518;9.206;2022-09-09T04:56:47;96887.63;;;16.88;67.10
32251;BME280;41295;48.518;9.206;2022-09-09T04:58:49;96889.84;;;16.81;67.52
32251;BME280;41295;48.518;9.206;2022-09-09T05:00:53;96885.31;;;16.83;67.55
32251;BME280;41295;48.518;9.206;2022-09-09T05:02:56;96889.75;;;16.83;67.32
32251;BME280;41295;48.518;9.206;2022-09-09T05:04:58;96886.69;;;16.76;67.45
32251;BME280;41295;48.518;9.206;2022-09-09T05:07:01;96889.94;;;16.93;67.31
32251;BME280;41295;48.518;9.206;2022-09-09T05:09:03;96892.34;;;16.96;67.76
32251;BME280;41295;48.518;9.206;2022-09-09T05:11:13;96883.63;;;16.95;67.07
32251;BME280;41295;48.518;9.206;2022-09-09T05:13:16;96878.38;;;16.95;67.08
32251;BME280;41295;48.518;9.206;2022-09-09T05:15:19;96879.19;;;16.96;67.10
32251;BME280;41295;48.518;9.206;2022-09-09T05:17:23;96894.06;;;16.97;67.02
32251;BME280;41295;48.518;9.206;2022-09-09T05:19:26;96898.56;;;16.95;66.23
32251;BME280;41295;48.518;9.206;2022-09-09T05:21:29;96902.38;;;16.91;67.05
32251;BME280;41295;48.518;9.206;2022-09-09T05:23:32;96901.84;;;16.86;67.86
32251;BME280;41295;48.518;9.206;2022-09-09T05:25:35;96901.63;;;16.89;67.70
32251;BME280;41295;48.518;9.206;2022-09-09T05:27:38;96906.78;;;16.90;67.67
32251;BME280;41295;48.518;9.206;2022-09-09T05:29:40;96905.31;;;16.86;67.67
32251;BME280;41295;48.518;9.206;2022-09-09T05:31:45;96908.25;;;16.81;67.20
32251;BME280;41295;48.518;9.206;2022-09-09T05:33:50;96907.97;;;16.86;67.32
32251;BME280;41295;48.518;9.206;2022-09-09T05:35:57;96913.63;;;16.93;66.92
32251;BME280;41295;48.518;9.206;2022-09-09T05:38:00;96905.50;;;16.96;66.39
32251;BME280;41295;48.518;9.206;2022-09-09T05:40:03;96920.56;;;16.94;66.87
32251;BME280;41295;48.518;9.206;2022-09-09T05:42:06;96917.88;;;16.95;67.09
32251;BME280;41295;48.518;9.206;2022-09-09T05:44:09;96921.00;;;17.01;66.18
32251;BME280;41295;48.518;9.206;2022-09-09T05:46:13;96930.28;;;16.93;66.81
32251;BME280;41295;48.518;9.206;2022-09-09T05:48:16;96921.53;;;16.93;66.81
32251;BME280;41295;48.518;9.206;2022-09-09T05:50:20;96919.44;;;16.98;66.98
32251;BME280;41295;48.518;9.206;2022-09-09T05:52:22;96918.28;;;17.02;67.01
32251;BME280;41295;48.518;9.206;2022-09-09T05:54:26;96918.06;;;17.05;67.17
32251;BME280;41295;48.518;9.206;2022-09-09T05:56:29;96924.28;;;17.04;67.13
32251;BME280;41295;48.518;9.206;2022-09-09T05:58:34;96923.09;;;17.08;67.25
32251;BME280;41295;48.518;9.206;2022-09-09T06:00:37;96925.66;;;17.10;67.75
32251;BME280;41295;48.518;9.206;2022-09-09T06:02:40;96934.00;;;17.17;67.69
32251;BME280;41295;48.518;9.206;2022-09-09T06:04:43;96926.50;;;17.24;66.97
32251;BME280;41295;48.518;9.206;2022-09-09T06:06:46;96926.72;;;17.21;66.83
32251;BME280;41295;48.518;9.206;2022-09-09T06:08:51;96925.84;;;17.20;67.43
32251;BME280;41295;48.518;9.206;2022-09-09T06:11:01;96926.25;;;17.27;67.48
32251;BME280;41295;48.518;9.206;2022-09-09T06:13:04;96922.47;;;17.31;67.56
32251;BME280;41295;48.518;9.206;2022-09-09T06:15:10;96928.25;;;17.36;67.35
32251;BME280;41295;48.518;9.206;2022-09-09T06:17:13;96930.66;;;17.39;67.13
32251;BME280;41295;48.518;9.206;2022-09-09T06:19:15;96925.78;;;17.46;66.71
32251;BME280;41295;48.518;9.206;2022-09-09T06:21:19;96925.28;;;17.41;66.71
32251;BME280;41295;48.518;9.206;2022-09-09T06:23:24;96924.22;;;17.43;67.03
32251;BME280;41295;48.518;9.206;2022-09-09T06:25:26;96920.50;;;17.46;67.28
32251;BME280;41295;48.518;9.206;2022-09-09T06:27:29;96920.22;;;17.51;67.08
32251;BME280;41295;48.518;9.206;2022-09-09T06:29:32;96922.94;;;17.49;67.07
32251;BME280;41295;48.518;9.206;2022-09-09T06:31:35;96921.03;;;17.51;66.99
32251;BME280;41295;48.518;9.206;2022-09-09T06:33:40;96918.69;;;17.60;66.57
32251;BME280;41295;48.518;9.206;2022-09-09T06:35:51;96918.69;;;17.60;67.03
32251;BME280;41295;48.518;9.206;2022-09-09T06:37:54;96921.09;;;17.63;67.37
32251;BME280;41295;48.518;9.206;2022-09-09T06:40:00;96920.53;;;17.71;66.98
32251;BME280;41295;48.518;9.206;2022-09-09T06:42:03;96923.09;;;17.72;66.85
32251;BME280;41295;48.518;9.206;2022-09-09T06:44:06;96922.63;;;17.78;66.86
32251;BME280;41295;48.518;9.206;2022-09-09T06:46:11;96923.34;;;17.81;66.33
32251;BME280;41295;48.518;9.206;2022-09-09T06:48:14;96923.00;;;17.85;66.54
32251;BME280;41295;48.518;9.206;2022-09-09T06:50:17;96928.59;;;17.94;65.64
32251;BME280;41295;48.518;9.206;2022-09-09T06:52:19;96926.25;;;17.89;65.80
32251;BME280;41295;48.518;9.206;2022-09-09T06:54:22;96928.22;;;17.98;65.45
32251;BME280;41295;48.518;9.206;2022-09-09T06:56:27;96925.25;;;18.03;65.84
32251;BME280;41295;48.518;9.206;2022-09-09T06:58:30;96929.13;;;18.10;65.45
32251;BME280;41295;48.518;9.206;2022-09-09T07:00:33;96923.84;;;18.10;64.15
32251;BME280;41295;48.518;9.206;2022-09-09T07:02:39;96924.47;;;18.14;64.58
32251;BME280;41295;48.518;9.206;2022-09-09T07:04:42;96929.09;;;18.23;64.35
32251;BME280;41295;48.518;9.206;2022-09-09T07:06:46;96931.41;;;18.39;62.54
32251;BME280;41295;48.518;9.206;2022-09-09T07:08:49;96931.78;;;18.35;63.60
32251;BME280;41295;48.518;9.206;2022-09-09T07:11:02;96934.00;;;18.28;64.49
32251;BME280;41295;48.518;9.206;2022-09-09T07:13:13;96926.88;;;18.42;64.55
32251;BME280;41295;48.518;9.206;2022-09-09T07:15:16;96937.06;;;18.46;64.89
32251;BME280;41295;48.518;9.206;2022-09-09T07:17:19;96927.47;;;18.45;63.04
32251;BME280;41295;48.518;9.206;2022-09-09T07:19:22;96932.56;;;18.71;62.84
32251;BME280;41295;48.518;9.206;2022-09-09T07:21:25;96927.38;;;18.58;63.39
32251;BME280;41295;48.518;9.206;2022-09-09T07:23:29;96924.47;;;18.50;63.82
32251;BME280;41295;48.518;9.206;2022-09-09T07:25:36;96923.66;;;18.61;63.21
32251;BME280;41295;48.518;9.206;2022-09-09T07:27:39;96925.69;;;18.57;64.17
32251;BME280;41295;48.518;9.206;2022-09-09T07:29:43;96914.69;;;18.63;64.30
32251;BME280;41295;48.518;9.206;2022-09-09T07:31:46;96913.94;;;18.73;64.07
32251;BME280;41295;48.518;9.206;2022-09-09T07:33:49;96917.44;;;18.73;63.56
32251;BME280;41295;48.518;9.206;2022-09-09T07:35:52;96928.97;;;18.72;63.88
32251;BME280;41295;48.518;9.206;2022-09-09T07:38:00;96935.94;;;18.73;63.52
32251;BME280;41295;48.518;9.206;2022-09-09T07:40:03;96939.28;;;18.75;62.92
32251;BME280;41295;48.518;9.206;2022-09-09T07:42:07;96946.59;;;18.83;63.44
32251;BME280;41295;48.518;9.206;2022-09-09T07:44:16;96953.97;;;18.91;62.87
32251;BME280;41295;48.518;9.206;2022-09-09T07:46:22;96953.47;;;18.86;63.32
32251;BME280;41295;48.518;9.206;2022-09-09T07:48:26;96948.91;;;18.88;63.65
32251;BME280;41295;48.518;9.206;2022-09-09T07:50:29;96948.53;;;18.93;62.86
32251;BME280;41295;48.518;9.206;2022-09-09T07:52:33;96963.09;;;18.98;63.01
32251;BME280;41295;48.518;9.206;2022-09-09T07:54:36;96959.25;;;18.91;63.66
32251;BME280;41295;48.518;9.206;2022-09-09T07:56:39;96952.97;;;18.92;64.13
32251;BME280;41295;48.518;9.206;2022-09-09T07:58:44;96956.47;;;18.93;64.57
32251;BME280;41295;48.518;9.206;2022-09-09T08:00:47;96960.91;;;18.92;64.81
32251;BME280;41295;48.518;9.206;2022-09-09T08:02:51;96958.28;;;19.04;63.66
32251;BME280;41295;48.518;9.206;2022-09-09T08:04:55;96963.56;;;19.04;63.55
32251;BME280;41295;48.518;9.206;2022-09-09T08:07:00;96961.53;;;19.07;64.12
32251;BME280;41295;48.518;9.206;2022-09-09T08:09:04;96972.38;;;19.16;63.95
32251;BME280;41295;48.518;9.206;2022-09-09T08:11:09;96962.28;;;19.44;62.23
32251;BME280;41295;48.518;9.206;2022-09-09T08:13:12;96959.16;;;19.27;62.04
32251;BME280;41295;48.518;9.206;2022-09-09T08:15:19;96965.31;;;19.28;61.78
32251;BME280;41295;48.518;9.206;2022-09-09T08:17:21;96966.72;;;19.32;61.61
32251;BME280;41295;48.518;9.206;2022-09-09T08:19:25;96962.16;;;19.34;62.02
32251;BME280;41295;48.518;9.206;2022-09-09T08:21:31;96962.28;;;19.21;62.24
32251;BME280;41295;48.518;9.206;2022-09-09T08:23:34;96966.97;;;19.17;62.78
32251;BME280;41295;48.518;9.206;2022-09-09T08:25:37;96968.06;;;19.15;63.64
32251;BME280;41295;48.518;9.206;2022-09-09T08:27:40;96968.31;;;19.11;63.39
32251;BME280;41295;48.518;9.206;2022-09-09T08:29:42;96975.13;;;19.14;63.27
32251;BME280;41295;48.518;9.206;2022-09-09T08:31:47;96977.91;;;19.13;63.23
32251;BME280;41295;48.518;9.206;2022-09-09T08:33:50;96979.56;;;19.14;62.79
32251;BME280;41295;48.518;9.206;2022-09-09T08:35:55;96983.78;;;19.16;62.59
32251;BME280;41295;48.518;9.206;2022-09-09T08:37:57;96985.13;;;19.22;62.93
32251;BME280;41295;48.518;9.206;2022-09-09T08:40:00;96977.44;;;19.42;61.71
32251;BME280;41295;48.518;9.206;2022-09-09T08:42:29;96978.16;;;19.32;62.12
32251;BME280;41295;48.518;9.206;2022-09-09T08:44:44;96971.88;;;19.33;61.87
32251;BME280;41295;48.518;9.206;2022-09-09T08:46:54;96978.75;;;19.36;61.89
32251;BME280;41295;48.518;9.206;2022-09-09T08:49:01;96990.78;;;19.40;61.62
32251;BME280;41295;48.518;9.206;2022-09-09T08:51:08;96978.16;;;19.44;61.88
32251;BME280;41295;48.518;9.206;2022-09-09T08:53:14;96979.31;;;19.51;60.54
32251;BME280;41295;48.518;9.206;2022-09-09T08:55:25;96983.50;;;19.88;60.14
32251;BME280;41295;48.518;9.206;2022-09-09T08:57:30;96992.66;;;19.73;59.91
32251;BME280;41295;48.518;9.206;2022-09-09T08:59:33;96990.72;;;19.75;58.56
32251;BME280;41295;48.518;9.206;2022-09-09T09:01:44;96983.53;;;19.65;58.09
32251;BME280;41295;48.518;9.206;2022-09-09T09:03:56;96982.09;;;19.61;57.72
32251;BME280;41295;48.518;9.206;2022-09-09T09:06:09;96978.94;;;19.67;57.36
32251;BME280;41295;48.518;9.206;2022-09-09T09:08:24;96971.66;;;19.59;58.09
32251;BME280;41295;48.518;9.206;2022-09-09T09:10:39;96982.22;;;19.59;58.66
32251;BME280;41295;48.518;9.206;2022-09-09T09:12:46;96980.78;;;19.67;57.64
32251;BME280;41295;48.518;9.206;2022-09-09T09:14:50;96973.31;;;19.61;58.04
32251;BME280;41295;48.518;9.206;2022-09-09T09:16:56;96967.19;;;19.60;58.59
32251;BME280;41295;48.518;9.206;2022-09-09T09:19:00;96971.41;;;19.51;58.33
32251;BME280;41295;48.518;9.206;2022-09-09T09:21:08;96964.91;;;19.55;58.18
32251;BME280;41295;48.518;9.206;2022-09-09T09:23:21;96953.13;;;19.48;57.86
32251;BME280;41295;48.518;9.206;2022-09-09T09:25:27;96951.94;;;19.41;58.75
32251;BME280;41295;48.518;9.206;2022-09-09T09:27:36;96957.94;;;19.43;58.10
32251;BME280;41295;48.518;9.206;2022-09-09T09:29:43;96961.91;;;19.49;57.08
32251;BME280;41295;48.518;9.206;2022-09-09T09:32:10;96958.69;;;19.56;56.99
32251;BME280;41295;48.518;9.206;2022-09-09T09:34:15;96962.72;;;19.61;57.80
32251;BME280;41295;48.518;9.206;2022-09-09T09:36:24;96955.53;;;19.51;57.96
32251;BME280;41295;48.518;9.206;2022-09-09T09:38:28;96959.16;;;19.50;57.33
32251;BME280;41295;48.518;9.206;2022-09-09T09:40:52;96955.66;;;19.61;55.66
32251;BME280;41295;48.518;9.206;2022-09-09T09:43:00;96943.97;;;19.64;56.71
32251;BME280;41295;48.518;9.206;2022-09-09T09:45:16;96952.50;;;19.67;56.81
32251;BME280;41295;48.518;9.206;2022-09-09T09:47:22;96944.81;;;19.64;56.73
32251;BME280;41295;48.518;9.206;2022-09-09T09:49:28;96955.16;;;19.67;57.77
32251;BME280;41295;48.518;9.206;2022-09-09T09:51:35;96938.06;;;19.83;56.13
32251;BME280;41295;48.518;9.206;2022-09-09T09:53:38;96947.41;;;19.87;55.80
32251;BME280;41295;48.518;9.206;2022-09-09T09:55:49;96948.72;;;19.93;54.15
32251;BME280;41295;48.518;9.206;2022-09-09T09:57:53;96932.94;;;20.03;53.99
32251;BME280;41295;48.518;9.206;2022-09-09T10:00:04;96932.78;;;20.16;54.04
32251;BME280;41295;48.518;9.206;2022-09-09T10:02:17;96924.72;;;20.17;53.54
32251;BME280;41295;48.518;9.206;2022-09-09T10:04:22;96926.03;;;20.23;53.96
32251;BME280;41295;48.518;9.206;2022-09-09T10:06:32;96931.31;;;20.45;53.05
32251;BME280;41295;48.518;9.206;2022-09-09T10:08:44;96930.16;;;20.59;53.29
32251;BME280;41295;48.518;9.206;2022-09-09T10:11:09;96936.56;;;20.56;52.00
32251;BME280;41295;48.518;9.206;2022-09-09T10:13:20;96932.69;;;20.60;51.87
32251;BME280;41295;48.518;9.206;2022-09-09T10:15:38;96934.28;;;20.51;52.98
32251;BME280;41295;48.518;9.206;2022-09-09T10:17:54;96946.41;;;20.65;53.47
32251;BME280;41295;48.518;9.206;2022-09-09T10:20:11;96931.78;;;20.71;52.00
32251;BME280;41295;48.518;9.206;2022-09-09T10:22:25;96927.94;;;20.85;51.43
32251;BME280;41295;48.518;9.206;2022-09-09T10:24:46;96924.84;;;20.80;51.77
32251;BME280;41295;48.518;9.206;2022-09-09T10:26:55;96917.44;;;20.74;52.14
32251;BME280;41295;48.518;9.206;2022-09-09T10:29:14;96915.50;;;20.76;53.41
32251;BME280;41295;48.518;9.206;2022-09-09T10:31:26;96913.03;;;20.84;51.38
32251;BME280;41295;48.518;9.206;2022-09-09T10:33:38;96918.31;;;21.06;50.90
32251;BME280;41295;48.518;9.206;2022-09-09T10:35:52;96913.16;;;20.83;51.30
32251;BME280;41295;48.518;9.206;2022-09-09T10:38:13;96923.22;;;20.89;50.87
32251;BME280;41295;48.518;9.206;2022-09-09T10:40:28;96919.81;;;20.98;48.17
32251;BME280;41295;48.518;9.206;2022-09-09T10:42:33;96916.53;;;20.85;46.57
32251;BME280;41295;48.518;9.206;2022-09-09T10:44:46;96919.56;;;20.80;47.61
32251;BME280;41295;48.518;9.206;2022-09-09T10:46:58;96905.34;;;20.81;46.69
32251;BME280;41295;48.518;9.206;2022-09-09T10:49:19;96909.84;;;20.90;46.95
32251;BME280;41295;48.518;9.206;2022-09-09T10:51:33;96930.56;;;20.75;48.14
32251;BME280;41295;48.518;9.206;2022-09-09T10:53:48;96902.25;;;20.76;46.63
32251;BME280;41295;48.518;9.206;2022-09-09T10:56:01;96895.97;;;20.77;47.98
32251;BME280;41295;48.518;9.206;2022-09-09T10:58:12;96883.66;;;20.66;48.99
32251;BME280;41295;48.518;9.206;2022-09-09T11:00:18;96895.09;;;20.66;50.62
32251;BME280;41295;48.518;9.206;2022-09-09T11:02:26;96892.25;;;20.79;48.90
32251;BME280;41295;48.518;9.206;2022-09-09T11:04:34;96885.81;;;20.82;49.10
32251;BME280;41295;48.518;9.206;2022-09-09T11:06:44;96888.66;;;21.12;48.96
32251;BME280;41295;48.518;9.206;2022-09-09T11:08:50;96894.09;;;21.20;47.98
32251;BME280;41295;48.518;9.206;2022-09-09T11:11:02;96898.47;;;21.31;46.67
32251;BME280;41295;48.518;9.206;2022-09-09T11:13:10;96897.34;;;21.34;47.50
32251;BME280;41295;48.518;9.206;2022-09-09T11:15:20;96902.41;;;21.37;46.49